Time;durP1;ratioP1;P1;durP2;ratioP2;P2;SDS_P1;SDS_P2;PMS_P1;PMS_P2;Temp;Humidity;BMP_temperature;BMP_pressure;BME280_temperature;BME280_humidity;BME280_pressure;Samples;Min_cycle;Max_cycle;Signal;HPM_P1;HPM_P2
2023/12/21 00:00:47;;;;;;;3.83;1.83;;;3.80;78.60;;;;;;4953850;28;20707;-61
2023/12/21 00:03:16;;;;;;;2.30;1.60;;;3.80;82.30;;;;;;4955779;28;20814;-62
2023/12/21 00:05:43;;;;;;;3.47;1.60;;;3.80;83.30;;;;;;4952224;28;20882;-61
2023/12/21 00:08:09;;;;;;;1.60;1.50;;;3.80;84.70;;;;;;4956780;28;20605;-61
2023/12/21 00:10:36;;;;;;;4.60;2.13;;;3.80;86.10;;;;;;4953964;28;20625;-62
2023/12/21 00:13:03;;;;;;;2.77;1.80;;;3.90;89.60;;;;;;4946667;29;20525;-61
2023/12/21 00:15:29;;;;;;;1.07;1.07;;;3.90;92.40;;;;;;4954834;29;20446;-62
2023/12/21 00:17:56;;;;;;;2.97;1.93;;;3.90;95.50;;;;;;4955497;29;20457;-62
2023/12/21 00:20:24;;;;;;;3.57;1.90;;;4.00;95.10;;;;;;4955664;28;20466;-62
2023/12/21 00:22:50;;;;;;;2.33;1.53;;;4.00;98.80;;;;;;4944212;28;21027;-56
2023/12/21 00:25:17;;;;;;;1.77;1.40;;;4.00;99.90;;;;;;4953294;28;20466;-56
2023/12/21 00:27:44;;;;;;;2.43;1.70;;;4.10;99.90;;;;;;4952965;29;20442;-58
2023/12/21 00:30:11;;;;;;;1.70;1.60;;;4.10;99.90;;;;;;4951928;29;20481;-58
2023/12/21 00:32:37;;;;;;;2.23;1.80;;;4.20;99.90;;;;;;4955435;29;20450;-58
2023/12/21 00:35:05;;;;;;;2.00;1.70;;;4.30;99.90;;;;;;4954643;28;20470;-56
2023/12/21 00:37:36;;;;;;;5.67;1.90;;;4.40;99.90;;;;;;4955429;29;20875;-56
2023/12/21 00:40:03;;;;;;;1.63;1.53;;;4.40;99.90;;;;;;4948659;28;20534;-55
2023/12/21 00:42:31;;;;;;;2.10;1.67;;;4.40;99.90;;;;;;4952215;29;20450;-55
2023/12/21 00:44:57;;;;;;;2.40;2.00;;;4.50;99.90;;;;;;4950975;29;20454;-56
2023/12/21 00:47:24;;;;;;;2.10;2.00;;;4.60;99.90;;;;;;4952761;29;20477;-62
2023/12/21 00:49:51;;;;;;;2.80;2.60;;;4.50;99.90;;;;;;4955214;29;20466;-61
2023/12/21 00:52:17;;;;;;;2.83;2.30;;;4.70;99.90;;;;;;4954863;29;20518;-60
2023/12/21 00:54:45;;;;;;;3.60;3.00;;;4.70;99.90;;;;;;4947026;29;20455;-57
2023/12/21 00:57:12;;;;;;;6.20;3.60;;;4.80;99.90;;;;;;4946742;29;20447;-58
2023/12/21 00:59:38;;;;;;;7.53;4.10;;;4.80;99.90;;;;;;4950702;29;20466;-59
2023/12/21 01:02:05;;;;;;;8.03;4.40;;;4.80;99.90;;;;;;4948984;29;20468;-56
2023/12/21 01:04:31;;;;;;;5.07;3.37;;;4.90;99.90;;;;;;4948098;29;20531;-62
2023/12/21 01:06:58;;;;;;;3.57;2.60;;;5.00;99.90;;;;;;4953239;29;20462;-62
2023/12/21 01:09:25;;;;;;;3.03;2.70;;;5.10;99.90;;;;;;4949937;28;20458;-62
2023/12/21 01:11:52;;;;;;;2.10;2.00;;;5.10;99.90;;;;;;4953262;28;20489;-62
2023/12/21 01:14:19;;;;;;;2.40;1.97;;;5.20;99.90;;;;;;4954576;29;20509;-61
2023/12/21 01:16:46;;;;;;;2.10;2.00;;;5.30;99.90;;;;;;4947897;29;20892;-62
2023/12/21 01:19:12;;;;;;;1.90;1.80;;;5.30;99.90;;;;;;4953777;29;20513;-63
2023/12/21 01:21:39;;;;;;;2.83;1.77;;;5.40;99.90;;;;;;4953052;29;20470;-55
2023/12/21 01:24:06;;;;;;;1.50;1.40;;;5.40;99.90;;;;;;4952950;29;20494;-55
2023/12/21 01:26:32;;;;;;;1.63;1.50;;;5.50;99.90;;;;;;4954210;29;20521;-55
2023/12/21 01:29:00;;;;;;;2.07;1.77;;;5.50;99.90;;;;;;4953575;29;20529;-55
2023/12/21 01:31:27;;;;;;;3.60;1.77;;;5.50;99.90;;;;;;4950035;28;20490;-55
2023/12/21 01:33:54;;;;;;;1.83;1.73;;;5.60;99.90;;;;;;4947673;28;20493;-54
2023/12/21 01:36:20;;;;;;;1.97;1.70;;;5.60;99.90;;;;;;4951315;28;20461;-56
2023/12/21 01:38:47;;;;;;;1.53;1.40;;;5.70;99.90;;;;;;4945157;28;21067;-57
2023/12/21 01:41:13;;;;;;;1.60;1.50;;;5.70;99.90;;;;;;4953190;28;20466;-54
2023/12/21 01:43:40;;;;;;;1.53;1.53;;;5.80;99.90;;;;;;4945823;29;20976;-55
2023/12/21 01:46:09;;;;;;;2.00;1.80;;;5.70;99.90;;;;;;4946861;29;20456;-54
2023/12/21 01:48:37;;;;;;;3.17;2.00;;;5.80;99.90;;;;;;4953048;29;21114;-56
2023/12/21 01:51:04;;;;;;;4.73;2.20;;;5.80;99.90;;;;;;4953129;29;20518;-55
2023/12/21 01:53:33;;;;;;;1.90;1.80;;;5.80;99.90;;;;;;4953315;29;20446;-56
2023/12/21 01:56:01;;;;;;;1.67;1.57;;;5.90;99.90;;;;;;4951749;29;20801;-56
2023/12/21 01:58:28;;;;;;;1.60;1.57;;;5.90;99.90;;;;;;4950347;29;20529;-57
2023/12/21 02:00:57;;;;;;;2.93;1.40;;;6.00;99.90;;;;;;4953310;28;20458;-56
2023/12/21 02:03:26;;;;;;;1.97;1.87;;;6.00;99.90;;;;;;4950259;28;20521;-56
2023/12/21 02:05:53;;;;;;;2.10;1.50;;;6.00;99.90;;;;;;4952876;29;20509;-56
2023/12/21 02:08:20;;;;;;;1.50;1.40;;;6.00;99.90;;;;;;4949508;29;20545;-56
2023/12/21 02:10:47;;;;;;;1.40;1.30;;;6.00;99.90;;;;;;4953852;28;20550;-56
2023/12/21 02:13:13;;;;;;;1.20;1.20;;;6.10;99.90;;;;;;4953782;29;20476;-55
2023/12/21 02:15:40;;;;;;;1.67;1.57;;;6.10;99.90;;;;;;4953342;29;20883;-56
2023/12/21 02:18:08;;;;;;;1.27;1.10;;;6.10;99.90;;;;;;4953010;29;20442;-54
2023/12/21 02:20:39;;;;;;;1.23;1.13;;;6.10;99.90;;;;;;4949728;29;20878;-56
2023/12/21 02:23:08;;;;;;;1.97;1.47;;;6.10;99.90;;;;;;4950258;29;20469;-57
2023/12/21 02:25:36;;;;;;;1.20;1.20;;;6.10;99.90;;;;;;4949831;29;20944;-56
2023/12/21 02:28:03;;;;;;;1.10;1.10;;;6.20;99.90;;;;;;4952682;29;20529;-56
2023/12/21 02:30:30;;;;;;;1.57;1.47;;;6.20;99.90;;;;;;4952342;29;20526;-56
2023/12/21 02:32:57;;;;;;;1.50;1.37;;;6.20;99.90;;;;;;4953472;29;20549;-56
2023/12/21 02:35:23;;;;;;;1.67;1.57;;;6.30;99.90;;;;;;4952956;29;20454;-55
2023/12/21 02:37:50;;;;;;;2.20;1.27;;;6.30;99.90;;;;;;4950238;29;20494;-55
2023/12/21 02:40:16;;;;;;;1.27;1.20;;;6.30;99.90;;;;;;4947577;28;20573;-55
2023/12/21 02:42:44;;;;;;;1.37;1.27;;;6.30;99.90;;;;;;4952621;29;20447;-56
2023/12/21 02:45:11;;;;;;;1.10;1.10;;;6.40;99.90;;;;;;4956560;28;20445;-55
2023/12/21 02:47:37;;;;;;;1.73;1.20;;;6.30;99.90;;;;;;4956642;29;20438;-55
2023/12/21 02:50:05;;;;;;;1.43;1.33;;;6.40;99.90;;;;;;4949228;29;20471;-55
2023/12/21 02:52:32;;;;;;;1.67;1.57;;;6.40;99.90;;;;;;4957507;29;20607;-55
2023/12/21 02:54:58;;;;;;;1.33;1.30;;;6.40;99.90;;;;;;4955749;29;20466;-56
2023/12/21 02:57:25;;;;;;;1.47;1.20;;;6.40;99.90;;;;;;4953558;28;20446;-54
2023/12/21 02:59:52;;;;;;;2.03;1.50;;;6.50;99.90;;;;;;4950467;28;20556;-55
2023/12/21 03:02:19;;;;;;;1.67;1.67;;;6.50;99.90;;;;;;4956203;29;20447;-55
2023/12/21 03:04:46;;;;;;;2.60;1.73;;;6.50;99.90;;;;;;4954935;28;20549;-56
2023/12/21 03:07:12;;;;;;;2.70;1.60;;;6.60;99.90;;;;;;4957347;29;20495;-55
2023/12/21 03:09:39;;;;;;;1.70;1.60;;;6.60;99.90;;;;;;4949220;29;20459;-56
2023/12/21 03:12:06;;;;;;;1.30;1.30;;;6.60;99.90;;;;;;4950923;29;20482;-55
2023/12/21 03:14:33;;;;;;;1.60;1.50;;;6.60;99.90;;;;;;4956376;29;20921;-56
2023/12/21 03:17:01;;;;;;;1.77;1.67;;;6.70;99.90;;;;;;4952302;28;21085;-55
2023/12/21 03:19:27;;;;;;;1.80;1.70;;;6.70;99.90;;;;;;4954293;28;20533;-55
2023/12/21 03:21:54;;;;;;;1.73;1.63;;;6.70;99.90;;;;;;4957149;28;20485;-55
2023/12/21 03:24:21;;;;;;;3.10;1.50;;;6.70;99.90;;;;;;4951577;29;20517;-56
2023/12/21 03:26:47;;;;;;;1.20;1.20;;;6.80;99.90;;;;;;4954491;29;20450;-57
2023/12/21 03:29:14;;;;;;;1.40;1.30;;;6.80;99.90;;;;;;4953256;28;20521;-55
2023/12/21 03:31:40;;;;;;;1.07;1.07;;;6.80;99.90;;;;;;4952747;28;20525;-55
2023/12/21 03:34:08;;;;;;;2.90;1.10;;;6.80;99.90;;;;;;4951875;28;20506;-54
2023/12/21 03:36:35;;;;;;;0.90;0.90;;;6.80;99.90;;;;;;4953161;29;20532;-56
2023/12/21 03:39:01;;;;;;;1.23;1.23;;;6.90;99.90;;;;;;4954420;29;20450;-56
2023/12/21 03:41:28;;;;;;;1.17;1.00;;;6.90;99.90;;;;;;4953613;28;20462;-56
2023/12/21 03:43:54;;;;;;;1.33;1.10;;;7.00;99.90;;;;;;4954559;29;20450;-56
2023/12/21 03:46:21;;;;;;;1.23;0.70;;;7.00;99.90;;;;;;4951000;29;20462;-55
2023/12/21 03:48:47;;;;;;;1.00;0.90;;;7.10;99.90;;;;;;4954339;29;20940;-54
2023/12/21 03:51:15;;;;;;;0.80;0.80;;;7.10;99.90;;;;;;4951274;28;21358;-56
2023/12/21 03:53:41;;;;;;;0.90;0.90;;;7.20;99.90;;;;;;4953211;29;20513;-55
2023/12/21 03:56:08;;;;;;;1.20;1.00;;;7.10;99.90;;;;;;4946269;28;20908;-55
2023/12/21 03:58:36;;;;;;;1.20;1.10;;;7.10;99.90;;;;;;4952402;28;20203;-54
2023/12/21 04:01:03;;;;;;;0.90;0.90;;;7.20;99.90;;;;;;4945070;29;20507;-55
2023/12/21 04:03:30;;;;;;;0.83;0.83;;;7.20;99.90;;;;;;4953935;29;20489;-55
2023/12/21 04:05:57;;;;;;;0.70;0.70;;;7.30;99.90;;;;;;4953732;29;20451;-56
2023/12/21 04:08:25;;;;;;;1.27;0.90;;;7.30;99.90;;;;;;4946140;29;20453;-56
2023/12/21 04:10:51;;;;;;;0.70;0.70;;;7.30;99.90;;;;;;4947961;28;20911;-55
2023/12/21 04:13:18;;;;;;;0.80;0.80;;;7.40;99.90;;;;;;4953878;29;20521;-57
2023/12/21 04:15:44;;;;;;;0.63;0.63;;;7.40;99.90;;;;;;4953792;29;20443;-56
2023/12/21 04:18:11;;;;;;;1.67;0.90;;;7.30;99.90;;;;;;4950954;29;20525;-56
2023/12/21 04:20:37;;;;;;;1.30;0.80;;;7.40;99.90;;;;;;4955753;29;20466;-56
2023/12/21 04:23:04;;;;;;;0.80;0.80;;;7.40;99.90;;;;;;4955488;29;20501;-55
2023/12/21 04:25:32;;;;;;;0.60;0.60;;;7.50;99.90;;;;;;4955190;29;20447;-54
2023/12/21 04:27:59;;;;;;;1.07;0.70;;;7.50;99.90;;;;;;4955915;29;20505;-54
2023/12/21 04:30:25;;;;;;;0.90;0.80;;;7.50;99.90;;;;;;4951823;28;20493;-54
2023/12/21 04:32:52;;;;;;;0.80;0.70;;;7.50;99.90;;;;;;4953139;29;20540;-55
2023/12/21 04:35:18;;;;;;;0.80;0.80;;;7.50;99.90;;;;;;4953377;28;20521;-54
2023/12/21 04:37:45;;;;;;;0.60;0.60;;;7.50;99.90;;;;;;4955231;29;20778;-55
2023/12/21 04:40:12;;;;;;;0.60;0.60;;;7.60;99.90;;;;;;4955137;28;20521;-54
2023/12/21 04:42:41;;;;;;;1.00;0.70;;;7.60;99.90;;;;;;4955461;29;20867;-56
2023/12/21 04:45:08;;;;;;;0.70;0.70;;;7.60;99.90;;;;;;4954641;29;20450;-55
2023/12/21 04:47:36;;;;;;;0.70;0.70;;;7.60;99.90;;;;;;4951976;29;20466;-55
2023/12/21 04:50:03;;;;;;;0.60;0.50;;;7.60;99.90;;;;;;4954215;28;20530;-56
2023/12/21 04:52:30;;;;;;;0.60;0.60;;;7.60;99.90;;;;;;4951655;29;20486;-56
2023/12/21 04:54:56;;;;;;;1.03;0.60;;;7.60;99.90;;;;;;4952605;29;20446;-55
2023/12/21 04:57:23;;;;;;;1.43;0.60;;;7.60;99.90;;;;;;4953003;29;20498;-54
2023/12/21 04:59:51;;;;;;;1.53;0.60;;;7.60;99.90;;;;;;4949508;28;20751;-55
2023/12/21 05:02:17;;;;;;;0.60;0.50;;;7.70;99.90;;;;;;4954198;29;20451;-55
2023/12/21 05:04:44;;;;;;;0.50;0.40;;;7.60;99.90;;;;;;4952730;29;20438;-56
2023/12/21 05:07:11;;;;;;;0.70;0.50;;;7.60;99.90;;;;;;4949926;29;20850;-55
2023/12/21 05:09:37;;;;;;;0.67;0.67;;;7.70;99.90;;;;;;4947868;28;20459;-55
2023/12/21 05:12:05;;;;;;;0.50;0.50;;;7.70;99.90;;;;;;4952051;29;20525;-56
2023/12/21 05:14:32;;;;;;;0.90;0.90;;;7.70;99.90;;;;;;4951883;29;20869;-55
2023/12/21 05:17:00;;;;;;;0.60;0.60;;;7.70;99.90;;;;;;4952521;29;20896;-56
2023/12/21 05:19:26;;;;;;;0.50;0.50;;;7.70;99.90;;;;;;4948861;28;20903;-56
2023/12/21 05:21:53;;;;;;;0.60;0.50;;;7.70;99.90;;;;;;4961744;28;21083;-56
2023/12/21 05:24:20;;;;;;;3.33;0.50;;;7.70;99.90;;;;;;4951993;28;20465;-56
2023/12/21 05:26:46;;;;;;;0.70;0.50;;;7.70;99.90;;;;;;4955039;28;20505;-56
2023/12/21 05:29:13;;;;;;;0.70;0.67;;;7.70;99.90;;;;;;4951619;29;20455;-54
2023/12/21 05:31:41;;;;;;;1.47;0.50;;;7.70;99.90;;;;;;4952277;29;20594;-55
2023/12/21 05:34:09;;;;;;;0.70;0.50;;;7.70;99.90;;;;;;4951741;29;20450;-56
2023/12/21 05:36:36;;;;;;;1.70;0.60;;;7.70;99.90;;;;;;4949935;28;20846;-55
2023/12/21 05:39:03;;;;;;;1.13;0.60;;;7.70;99.90;;;;;;4952885;29;20489;-56
2023/12/21 05:41:31;;;;;;;0.60;0.50;;;7.70;99.90;;;;;;4950859;28;20553;-57
2023/12/21 05:43:57;;;;;;;0.67;0.60;;;7.70;99.90;;;;;;4953246;29;20450;-55
2023/12/21 05:46:24;;;;;;;0.60;0.50;;;7.70;99.90;;;;;;4953772;29;20458;-55
2023/12/21 05:48:50;;;;;;;0.70;0.70;;;7.70;99.90;;;;;;4954412;29;20479;-54
2023/12/21 05:51:18;;;;;;;1.53;0.57;;;7.70;99.90;;;;;;4954014;29;20517;-55
2023/12/21 05:53:45;;;;;;;0.60;0.60;;;7.70;99.90;;;;;;4953410;29;20549;-55
2023/12/21 05:56:11;;;;;;;1.90;0.50;;;7.70;99.90;;;;;;4950231;29;20595;-56
2023/12/21 05:58:38;;;;;;;0.73;0.40;;;7.70;99.90;;;;;;4950288;29;20470;-55
2023/12/21 06:01:05;;;;;;;0.67;0.60;;;7.70;99.90;;;;;;4951854;28;20470;-55
2023/12/21 06:03:31;;;;;;;0.80;0.80;;;7.70;99.90;;;;;;4951672;29;20810;-56
2023/12/21 06:05:58;;;;;;;0.80;0.70;;;7.70;99.90;;;;;;4951806;29;20454;-56
2023/12/21 06:08:26;;;;;;;0.80;0.80;;;7.70;99.90;;;;;;4950828;29;20556;-55
2023/12/21 06:10:53;;;;;;;2.60;0.53;;;7.70;99.90;;;;;;4948318;28;20501;-56
2023/12/21 06:13:19;;;;;;;1.13;0.63;;;7.70;99.90;;;;;;4942594;28;20491;-56
2023/12/21 06:15:46;;;;;;;0.80;0.80;;;7.70;99.90;;;;;;4944040;29;20949;-56
2023/12/21 06:18:12;;;;;;;0.60;0.60;;;7.70;99.90;;;;;;4952159;29;20874;-56
2023/12/21 06:20:39;;;;;;;0.70;0.70;;;7.70;99.90;;;;;;4950356;28;20528;-56
2023/12/21 06:23:05;;;;;;;0.80;0.70;;;7.70;99.90;;;;;;4951709;29;20490;-56
2023/12/21 06:25:33;;;;;;;0.60;0.50;;;7.70;99.90;;;;;;4949254;29;20442;-56
2023/12/21 06:28:00;;;;;;;1.03;0.80;;;7.70;99.90;;;;;;4947407;29;21034;-56
2023/12/21 06:30:26;;;;;;;0.70;0.70;;;7.70;99.90;;;;;;4950303;28;20899;-56
2023/12/21 06:32:53;;;;;;;1.10;0.90;;;7.70;99.90;;;;;;4948894;28;21012;-55
2023/12/21 06:35:19;;;;;;;0.70;0.70;;;7.70;99.90;;;;;;4951831;29;20482;-54
2023/12/21 06:37:46;;;;;;;2.80;0.80;;;7.70;99.90;;;;;;4952359;29;20826;-57
2023/12/21 06:40:13;;;;;;;3.00;1.03;;;7.70;99.90;;;;;;4950512;29;20521;-56
2023/12/21 06:42:41;;;;;;;1.47;0.87;;;7.70;99.90;;;;;;4952831;29;20478;-57
2023/12/21 06:45:08;;;;;;;0.80;0.80;;;7.70;99.90;;;;;;4948500;29;20533;-56
2023/12/21 06:47:35;;;;;;;0.90;0.90;;;7.70;99.90;;;;;;4953527;29;20878;-55
2023/12/21 06:50:02;;;;;;;1.30;1.20;;;7.70;99.90;;;;;;4949492;28;20485;-56
2023/12/21 06:52:30;;;;;;;1.87;1.10;;;7.70;99.90;;;;;;4951840;29;20485;-55
2023/12/21 06:54:57;;;;;;;2.60;2.20;;;7.70;99.90;;;;;;4950818;29;20533;-56
2023/12/21 06:57:24;;;;;;;3.03;2.17;;;7.70;99.90;;;;;;4952985;29;20446;-55
2023/12/21 06:59:51;;;;;;;1.63;1.53;;;7.70;99.90;;;;;;4950862;28;20457;-55
2023/12/21 07:02:18;;;;;;;1.30;1.20;;;7.70;99.90;;;;;;4947811;28;20976;-55
2023/12/21 07:04:46;;;;;;;3.70;2.60;;;7.70;99.90;;;;;;4949516;29;20467;-56
2023/12/21 07:07:12;;;;;;;2.40;2.17;;;7.70;99.90;;;;;;4952205;29;20505;-55
2023/12/21 07:09:39;;;;;;;6.00;2.90;;;7.70;99.90;;;;;;4949586;29;20522;-55
2023/12/21 07:12:06;;;;;;;6.80;3.10;;;7.70;99.90;;;;;;4952895;29;20513;-56
2023/12/21 07:14:32;;;;;;;1.87;1.77;;;7.70;99.90;;;;;;4952584;29;20527;-56
2023/12/21 07:17:00;;;;;;;2.50;2.00;;;7.70;99.90;;;;;;4953149;29;20451;-56
2023/12/21 07:19:27;;;;;;;3.10;2.40;;;7.70;99.90;;;;;;4953109;29;20497;-56
2023/12/21 07:21:53;;;;;;;4.73;2.20;;;7.70;99.90;;;;;;4948803;28;20486;-56
2023/12/21 07:24:20;;;;;;;2.00;1.90;;;7.70;99.90;;;;;;4951625;29;21015;-54
2023/12/21 07:26:46;;;;;;;3.20;2.33;;;7.80;99.90;;;;;;4949875;29;20470;-55
2023/12/21 07:29:13;;;;;;;2.70;2.50;;;7.70;99.90;;;;;;4949322;29;20454;-55
2023/12/21 07:31:40;;;;;;;3.60;2.97;;;7.80;99.90;;;;;;4954978;28;20466;-55
2023/12/21 07:34:09;;;;;;;2.13;1.70;;;7.70;99.90;;;;;;4956806;29;20522;-55
2023/12/21 07:36:35;;;;;;;1.93;1.83;;;7.70;99.90;;;;;;4953438;29;20468;-55
2023/12/21 07:39:04;;;;;;;2.03;1.83;;;7.80;99.90;;;;;;4952552;28;20469;-56
2023/12/21 07:41:31;;;;;;;3.67;2.40;;;7.80;99.90;;;;;;4947080;28;20482;-55
2023/12/21 07:43:58;;;;;;;2.90;2.50;;;7.80;99.90;;;;;;4957992;28;20461;-56
2023/12/21 07:46:25;;;;;;;7.00;3.00;;;7.80;99.90;;;;;;4954273;28;20468;-57
2023/12/21 07:48:51;;;;;;;2.67;1.83;;;7.80;99.90;;;;;;4954789;28;20545;-56
2023/12/21 07:51:19;;;;;;;3.37;2.20;;;7.80;99.90;;;;;;4952145;28;20533;-58
2023/12/21 07:53:46;;;;;;;1.80;1.70;;;7.80;99.90;;;;;;4943626;28;20584;-57
2023/12/21 07:56:12;;;;;;;1.40;1.20;;;7.80;99.90;;;;;;4952895;28;20835;-56
2023/12/21 07:58:39;;;;;;;1.43;0.93;;;7.80;99.90;;;;;;4953454;28;20509;-56
2023/12/21 08:01:06;;;;;;;1.23;1.13;;;7.80;99.90;;;;;;4956298;28;20533;-57
2023/12/21 08:03:32;;;;;;;1.00;1.00;;;7.70;99.90;;;;;;4955043;28;20462;-57
2023/12/21 08:05:59;;;;;;;1.30;1.30;;;7.70;99.90;;;;;;4956686;28;20466;-57
2023/12/21 08:08:27;;;;;;;1.13;1.00;;;7.70;99.90;;;;;;4952913;28;20467;-58
2023/12/21 08:10:53;;;;;;;1.47;1.00;;;7.60;99.90;;;;;;4941548;28;20523;-56
2023/12/21 08:13:20;;;;;;;1.10;0.80;;;7.60;99.90;;;;;;4954279;28;20541;-57
2023/12/21 08:15:46;;;;;;;0.90;0.90;;;7.60;99.90;;;;;;4945873;28;20466;-57
2023/12/21 08:18:13;;;;;;;0.93;0.93;;;7.60;99.90;;;;;;4951472;28;20869;-58
2023/12/21 08:20:41;;;;;;;1.00;1.00;;;7.60;99.90;;;;;;4952047;28;21096;-57
2023/12/21 08:23:08;;;;;;;1.10;1.10;;;7.50;99.90;;;;;;4958532;28;20458;-58
2023/12/21 08:25:36;;;;;;;1.07;1.07;;;7.50;99.90;;;;;;4955096;29;20892;-57
2023/12/21 08:28:03;;;;;;;1.67;0.90;;;7.50;99.90;;;;;;4950271;28;21006;-58
2023/12/21 08:30:29;;;;;;;1.93;1.30;;;7.50;99.90;;;;;;4950258;28;21016;-57
2023/12/21 08:32:56;;;;;;;0.80;0.80;;;7.50;99.90;;;;;;4946958;29;21044;-56
2023/12/21 08:35:22;;;;;;;2.17;0.97;;;7.50;99.90;;;;;;4947261;28;20474;-57
2023/12/21 08:37:49;;;;;;;2.53;0.80;;;7.50;99.90;;;;;;4949831;28;20498;-57
2023/12/21 08:40:16;;;;;;;1.13;1.03;;;7.50;99.90;;;;;;4945320;28;20486;-57
2023/12/21 08:42:44;;;;;;;0.83;0.83;;;7.50;99.90;;;;;;4947937;28;20479;-57
2023/12/21 08:45:11;;;;;;;0.90;0.90;;;7.40;99.90;;;;;;4953500;28;20466;-57
2023/12/21 08:47:40;;;;;;;1.17;1.07;;;7.40;99.90;;;;;;4947694;28;21001;-57
2023/12/21 08:50:08;;;;;;;0.70;0.63;;;7.40;99.90;;;;;;4953416;28;20500;-57
2023/12/21 08:52:36;;;;;;;0.90;0.90;;;7.40;99.90;;;;;;4947882;28;20458;-58
2023/12/21 08:55:03;;;;;;;0.77;0.77;;;7.40;99.90;;;;;;4939797;28;20482;-58
2023/12/21 08:57:32;;;;;;;1.30;0.77;;;7.50;99.90;;;;;;4952117;28;20972;-57
2023/12/21 09:00:03;;;;;;;2.57;0.93;;;7.50;99.90;;;;;;4953335;28;20466;-58
2023/12/21 09:02:30;;;;;;;0.80;0.80;;;7.50;99.90;;;;;;4951798;28;20466;-59
2023/12/21 09:04:56;;;;;;;0.90;0.90;;;7.50;99.90;;;;;;4957456;28;20463;-57
2023/12/21 09:07:24;;;;;;;1.20;1.10;;;7.50;99.90;;;;;;4948342;28;20545;-57
2023/12/21 09:09:51;;;;;;;3.93;3.63;;;7.50;99.90;;;;;;4941762;28;20466;-59
2023/12/21 09:12:18;;;;;;;1.67;1.27;;;7.50;99.90;;;;;;4948625;29;20964;-58
2023/12/21 09:14:45;;;;;;;1.20;1.10;;;7.50;99.90;;;;;;4950617;28;21659;-57
2023/12/21 09:17:14;;;;;;;2.60;0.90;;;7.50;99.90;;;;;;4958130;28;20469;-57
2023/12/21 09:19:40;;;;;;;3.10;0.90;;;7.60;99.90;;;;;;4956355;28;20466;-57
2023/12/21 09:22:08;;;;;;;3.40;0.40;;;7.60;99.90;;;;;;4943460;29;20835;-55
2023/12/21 09:24:34;;;;;;;0.80;0.80;;;7.60;99.90;;;;;;4952961;28;21145;-56
2023/12/21 09:27:01;;;;;;;1.20;0.80;;;7.50;99.90;;;;;;4950836;28;20537;-56
2023/12/21 09:29:29;;;;;;;2.10;0.70;;;7.50;99.90;;;;;;4945193;28;20473;-56
2023/12/21 09:31:56;;;;;;;1.80;0.67;;;7.60;99.90;;;;;;4948254;29;20486;-56
2023/12/21 09:34:24;;;;;;;0.60;0.60;;;7.60;99.90;;;;;;4947532;29;20577;-56
2023/12/21 09:36:52;;;;;;;0.77;0.77;;;7.60;99.90;;;;;;4944717;28;20467;-56
2023/12/21 09:39:19;;;;;;;0.80;0.70;;;7.50;99.90;;;;;;4952698;28;20475;-57
2023/12/21 09:41:46;;;;;;;1.00;0.90;;;7.60;99.90;;;;;;4946732;28;20912;-57
2023/12/21 09:44:16;;;;;;;3.33;0.90;;;7.60;99.90;;;;;;4948868;28;20450;-56
2023/12/21 09:46:44;;;;;;;1.10;1.00;;;7.60;99.90;;;;;;4951188;29;20513;-56
2023/12/21 09:49:15;;;;;;;0.70;0.70;;;7.60;99.90;;;;;;4948554;28;21019;-56
2023/12/21 09:51:45;;;;;;;0.60;0.60;;;7.60;99.90;;;;;;4958412;28;20490;-57
2023/12/21 09:54:13;;;;;;;2.40;0.70;;;7.60;99.90;;;;;;4958472;28;20992;-56
2023/12/21 09:56:40;;;;;;;0.73;0.70;;;7.60;99.90;;;;;;4959884;29;20466;-61
2023/12/21 09:59:08;;;;;;;2.17;0.60;;;7.50;99.90;;;;;;4954937;28;20508;-57
2023/12/21 10:01:35;;;;;;;1.90;1.00;;;7.60;99.90;;;;;;4943566;28;21004;-56
2023/12/21 10:04:02;;;;;;;0.97;0.97;;;7.60;99.90;;;;;;4945843;28;20450;-57
2023/12/21 10:06:29;;;;;;;0.83;0.83;;;7.60;99.90;;;;;;4947847;28;20504;-57
2023/12/21 10:08:57;;;;;;;0.60;0.57;;;7.60;99.90;;;;;;4947237;28;20463;-56
2023/12/21 10:11:23;;;;;;;0.60;0.53;;;7.60;99.90;;;;;;4949550;28;20490;-56
2023/12/21 10:13:53;;;;;;;0.60;0.60;;;7.60;99.90;;;;;;4955857;28;20583;-56
2023/12/21 10:16:19;;;;;;;0.70;0.70;;;7.60;99.90;;;;;;4951471;28;20524;-56
2023/12/21 10:18:46;;;;;;;0.70;0.70;;;7.70;99.90;;;;;;4949513;28;21043;-56
2023/12/21 10:21:13;;;;;;;1.13;0.70;;;7.70;99.90;;;;;;4950337;28;20544;-56
2023/12/21 10:23:41;;;;;;;2.70;1.40;;;7.70;99.90;;;;;;4935108;28;20462;-56
2023/12/21 10:26:09;;;;;;;0.50;0.50;;;7.70;99.90;;;;;;4942707;28;20463;-57
2023/12/21 10:28:35;;;;;;;0.70;0.70;;;7.70;99.90;;;;;;4944969;28;20523;-57
2023/12/21 10:31:03;;;;;;;1.33;0.63;;;7.70;99.90;;;;;;4952472;28;20553;-56
2023/12/21 10:33:30;;;;;;;2.23;1.10;;;7.70;99.90;;;;;;4954008;28;20554;-56
2023/12/21 10:35:58;;;;;;;0.93;0.93;;;7.70;99.90;;;;;;4951634;28;20525;-56
2023/12/21 10:38:25;;;;;;;0.80;0.80;;;7.70;99.90;;;;;;4941821;28;20499;-57
2023/12/21 10:40:52;;;;;;;1.00;1.00;;;7.70;99.90;;;;;;4953462;28;21021;-56
2023/12/21 10:43:19;;;;;;;1.97;0.80;;;7.70;99.90;;;;;;4950368;28;20466;-56
2023/12/21 10:45:47;;;;;;;0.70;0.70;;;7.70;99.90;;;;;;4952873;28;20891;-56
2023/12/21 10:48:16;;;;;;;2.30;0.67;;;7.70;99.90;;;;;;4932775;28;20546;-56
2023/12/21 10:50:45;;;;;;;2.67;0.90;;;7.80;99.90;;;;;;4946035;28;20496;-57
2023/12/21 10:53:14;;;;;;;1.20;0.80;;;7.80;99.90;;;;;;4940615;28;20466;-56
2023/12/21 10:55:42;;;;;;;0.80;0.80;;;7.80;99.90;;;;;;4948875;28;21015;-57
2023/12/21 10:58:09;;;;;;;1.27;0.77;;;7.80;99.90;;;;;;4952032;28;20549;-57
2023/12/21 11:00:38;;;;;;;0.83;0.80;;;7.80;99.90;;;;;;4945811;29;20536;-57
2023/12/21 11:03:07;;;;;;;0.90;0.90;;;7.80;99.90;;;;;;4952607;28;20480;-57
2023/12/21 11:05:35;;;;;;;0.63;0.63;;;7.80;99.90;;;;;;4950222;28;20471;-57
2023/12/21 11:08:03;;;;;;;1.10;0.60;;;7.80;99.90;;;;;;4958379;28;20963;-57
2023/12/21 11:10:33;;;;;;;0.57;0.47;;;7.90;99.90;;;;;;4946704;28;21243;-57
2023/12/21 11:12:59;;;;;;;1.00;0.90;;;7.90;99.90;;;;;;4946976;28;20461;-56
2023/12/21 11:15:26;;;;;;;1.37;0.90;;;7.90;99.90;;;;;;4952700;28;20481;-55
2023/12/21 11:17:57;;;;;;;1.07;0.70;;;7.90;99.90;;;;;;4955949;28;20497;-53
2023/12/21 11:20:27;;;;;;;0.70;0.70;;;7.90;99.90;;;;;;4952106;28;20482;-53
2023/12/21 11:22:54;;;;;;;1.00;0.70;;;7.90;99.90;;;;;;4949796;29;20968;-52
2023/12/21 11:25:22;;;;;;;0.63;0.63;;;7.90;99.90;;;;;;4953144;28;20549;-53
2023/12/21 11:27:49;;;;;;;0.73;0.60;;;8.00;99.90;;;;;;4951973;28;20516;-54
2023/12/21 11:30:18;;;;;;;0.70;0.70;;;8.00;99.90;;;;;;4942126;28;20550;-54
2023/12/21 11:32:46;;;;;;;0.70;0.70;;;8.00;99.90;;;;;;4951259;28;20992;-53
2023/12/21 11:35:21;;;;;;;0.60;0.60;;;8.00;99.90;;;;;;4956608;28;20492;-55
2023/12/21 11:37:53;;;;;;;0.50;0.47;;;8.00;99.90;;;;;;4950001;28;20474;-55
2023/12/21 11:40:21;;;;;;;0.83;0.70;;;8.00;99.90;;;;;;4945691;29;20852;-54
2023/12/21 11:42:49;;;;;;;0.80;0.80;;;8.00;99.90;;;;;;4946200;29;20474;-55
2023/12/21 11:45:23;;;;;;;0.70;0.70;;;8.00;99.90;;;;;;4945036;28;20493;-54
2023/12/21 11:47:49;;;;;;;0.73;0.53;;;8.00;99.90;;;;;;4944041;28;21147;-53
2023/12/21 11:50:21;;;;;;;0.90;0.63;;;8.00;99.90;;;;;;4942274;28;21059;-53
2023/12/21 11:52:48;;;;;;;2.37;0.67;;;8.00;99.90;;;;;;4950739;28;20211;-54
2023/12/21 11:55:24;;;;;;;0.60;0.50;;;8.00;99.90;;;;;;4947829;28;20486;-53
2023/12/21 11:58:06;;;;;;;0.60;0.40;;;8.10;99.90;;;;;;4951218;29;20470;-52
2023/12/21 12:00:33;;;;;;;0.60;0.53;;;8.10;99.90;;;;;;4951116;28;20558;-53
2023/12/21 12:03:00;;;;;;;0.60;0.57;;;8.10;99.90;;;;;;4953935;29;20473;-55
2023/12/21 12:05:30;;;;;;;0.60;0.60;;;8.10;99.90;;;;;;4944149;28;20799;-54
2023/12/21 12:07:56;;;;;;;0.70;0.60;;;8.10;99.90;;;;;;4951336;29;20481;-53
2023/12/21 12:10:23;;;;;;;0.70;0.60;;;8.10;99.90;;;;;;4951993;28;20539;-54
2023/12/21 12:12:52;;;;;;;0.63;0.63;;;8.20;99.90;;;;;;4950674;28;20454;-54
2023/12/21 12:15:18;;;;;;;1.33;0.80;;;8.10;99.90;;;;;;4946469;28;20487;-53
2023/12/21 12:17:45;;;;;;;0.80;0.60;;;8.20;99.90;;;;;;4952790;28;20447;-55
2023/12/21 12:20:12;;;;;;;0.60;0.60;;;8.20;99.90;;;;;;4955149;28;20498;-54
2023/12/21 12:22:40;;;;;;;1.00;0.80;;;8.20;99.90;;;;;;4954245;28;20442;-54
2023/12/21 12:25:07;;;;;;;0.60;0.50;;;8.20;99.90;;;;;;4951587;29;20474;-54
2023/12/21 12:27:34;;;;;;;0.70;0.60;;;8.20;99.90;;;;;;4954298;29;20510;-54
2023/12/21 12:30:01;;;;;;;0.60;0.60;;;8.20;99.90;;;;;;4947610;28;20537;-53
2023/12/21 12:32:27;;;;;;;0.80;0.80;;;8.20;99.90;;;;;;4952456;29;20479;-54
2023/12/21 12:34:54;;;;;;;3.00;0.60;;;8.20;99.90;;;;;;4951709;29;20490;-54
2023/12/21 12:37:21;;;;;;;0.70;0.70;;;8.30;99.90;;;;;;4948467;29;20606;-54
2023/12/21 12:39:51;;;;;;;1.10;0.70;;;8.30;99.90;;;;;;4942754;29;20446;-53
2023/12/21 12:42:18;;;;;;;0.60;0.50;;;8.30;99.90;;;;;;4954286;29;20486;-54
2023/12/21 12:44:44;;;;;;;1.00;0.90;;;8.30;99.90;;;;;;4940404;28;20459;-55
2023/12/21 12:47:12;;;;;;;0.70;0.67;;;8.30;99.90;;;;;;4951560;29;20837;-54
2023/12/21 12:49:38;;;;;;;0.90;0.70;;;8.30;99.90;;;;;;4953714;28;20877;-55
2023/12/21 12:52:05;;;;;;;0.60;0.60;;;8.30;99.90;;;;;;4954439;28;20466;-54
2023/12/21 12:54:34;;;;;;;0.63;0.63;;;8.30;99.90;;;;;;4950881;29;20489;-53
2023/12/21 12:57:03;;;;;;;1.20;0.70;;;8.40;99.90;;;;;;4949824;29;20447;-54